createdAt,value
2024-01-11T00:00:17.588Z,19.54
2024-01-11T00:01:17.931Z,19.55
2024-01-11T00:02:17.745Z,19.55
2024-01-11T00:03:17.816Z,19.54
2024-01-11T00:04:17.913Z,19.54
2024-01-11T00:05:18.132Z,19.55
2024-01-11T00:06:18.150Z,19.54
2024-01-11T00:07:18.070Z,19.53
2024-01-11T00:08:18.202Z,19.56
2024-01-11T00:09:18.150Z,19.54
2024-01-11T00:10:18.298Z,19.54
2024-01-11T00:11:18.855Z,19.57
2024-01-11T00:12:18.401Z,19.55
2024-01-11T00:13:18.455Z,19.55
2024-01-11T00:14:18.584Z,19.54
2024-01-11T00:15:18.698Z,19.54
2024-01-11T00:16:18.653Z,19.55
2024-01-11T00:17:18.757Z,19.55
2024-01-11T00:18:18.999Z,19.54
2024-01-11T00:19:18.913Z,19.54
2024-01-11T00:20:18.948Z,19.54
2024-01-11T00:21:19.010Z,19.53
2024-01-11T00:22:19.036Z,19.52
2024-01-11T00:23:19.097Z,19.53
2024-01-11T00:24:19.154Z,19.55
2024-01-11T00:25:19.203Z,19.54
2024-01-11T00:26:19.395Z,19.53
2024-01-11T00:27:19.379Z,19.53
2024-01-11T00:28:19.390Z,19.54
2024-01-11T00:29:19.492Z,19.51
2024-01-11T00:30:19.519Z,19.52
2024-01-11T00:31:19.614Z,19.54
2024-01-11T00:32:19.722Z,19.53
2024-01-11T00:33:19.799Z,19.53
2024-01-11T00:34:19.879Z,19.54
2024-01-11T00:35:19.854Z,19.53
2024-01-11T00:36:19.962Z,19.54
2024-01-11T00:37:20.048Z,19.53
2024-01-11T00:38:20.130Z,19.54
2024-01-11T00:39:20.113Z,19.54
2024-01-11T00:40:20.169Z,19.54
2024-01-11T00:41:20.294Z,19.53
2024-01-11T00:42:20.286Z,19.53
2024-01-11T00:43:20.358Z,19.54
2024-01-11T00:44:20.483Z,19.53
2024-01-11T00:45:20.508Z,19.52
2024-01-11T00:46:20.592Z,19.54
2024-01-11T00:47:20.621Z,19.52
2024-01-11T00:48:20.750Z,19.53
2024-01-11T00:49:21.540Z,19.52
2024-01-11T00:50:20.825Z,19.53
2024-01-11T00:51:20.847Z,19.54
2024-01-11T00:52:20.924Z,19.55
2024-01-11T00:53:21.008Z,19.53
2024-01-11T00:54:21.035Z,19.53
2024-01-11T00:55:21.081Z,19.53
2024-01-11T00:56:21.521Z,19.53
2024-01-11T00:57:22.627Z,19.51
2024-01-11T00:58:21.245Z,19.51
2024-01-11T00:59:21.943Z,19.54
2024-01-11T01:00:21.361Z,19.53
2024-01-11T01:01:21.939Z,19.53
2024-01-11T01:02:21.496Z,19.53
2024-01-11T01:03:21.523Z,19.51
2024-01-11T01:04:21.557Z,19.53
2024-01-11T01:05:21.636Z,19.54
2024-01-11T01:06:21.648Z,19.53
2024-01-11T01:07:21.686Z,19.53
2024-01-11T01:08:21.777Z,19.52
2024-01-11T01:09:21.781Z,19.55
2024-01-11T01:10:21.904Z,19.52
2024-01-11T01:11:21.957Z,19.54
2024-01-11T01:12:21.965Z,19.53
2024-01-11T01:13:22.034Z,19.52
2024-01-11T01:14:22.095Z,19.53
2024-01-11T01:15:22.163Z,19.51
2024-01-11T01:16:22.178Z,19.52
2024-01-11T01:17:22.224Z,19.52
2024-01-11T01:18:22.259Z,19.51
2024-01-11T01:19:22.332Z,19.54
2024-01-11T01:20:22.356Z,19.53
2024-01-11T01:21:22.426Z,19.51
2024-01-11T01:22:22.409Z,19.51
2024-01-11T01:23:22.491Z,19.53
2024-01-11T01:24:22.537Z,19.51
2024-01-11T01:25:22.589Z,19.52
2024-01-11T01:26:22.659Z,19.52
2024-01-11T01:27:22.773Z,19.52
2024-01-11T01:28:22.759Z,19.53
2024-01-11T01:29:22.839Z,19.51
2024-01-11T01:30:22.865Z,19.52
2024-01-11T01:31:22.876Z,19.52
2024-01-11T01:32:23.237Z,19.51
2024-01-11T01:33:23.107Z,19.51
2024-01-11T01:34:23.266Z,19.52
2024-01-11T01:35:23.218Z,19.52
2024-01-11T01:36:23.160Z,19.51
2024-01-11T01:37:23.233Z,19.53
2024-01-11T01:38:23.319Z,19.53
2024-01-11T01:39:23.307Z,19.52
2024-01-11T01:40:23.364Z,19.51
2024-01-11T01:41:23.526Z,19.50
2024-01-11T01:42:23.481Z,19.52
2024-01-11T01:43:23.516Z,19.52
2024-01-11T01:44:23.596Z,19.51
2024-01-11T01:45:23.617Z,19.53
2024-01-11T01:46:23.714Z,19.53
2024-01-11T01:47:23.785Z,19.52
2024-01-11T01:48:24.054Z,19.53
2024-01-11T01:49:24.127Z,19.51
2024-01-11T01:50:23.910Z,19.52
2024-01-11T01:51:23.952Z,19.52
2024-01-11T01:52:24.011Z,19.53
2024-01-11T01:53:24.043Z,19.51
2024-01-11T01:54:24.035Z,19.51
2024-01-11T01:55:24.064Z,19.52
2024-01-11T01:56:24.153Z,19.52
2024-01-11T01:57:24.149Z,19.51
2024-01-11T01:58:24.212Z,19.51
2024-01-11T01:59:24.250Z,19.51
2024-01-11T02:00:24.320Z,19.52
2024-01-11T02:01:24.573Z,19.52
2024-01-11T02:02:24.393Z,19.52
2024-01-11T02:03:24.506Z,19.52
2024-01-11T02:04:24.487Z,19.51
2024-01-11T02:05:24.590Z,19.52
2024-01-11T02:06:24.754Z,19.51
2024-01-11T02:07:24.600Z,19.52
2024-01-11T02:08:24.635Z,19.51
2024-01-11T02:09:24.675Z,19.52
2024-01-11T02:10:24.733Z,19.50
2024-01-11T02:11:24.879Z,19.52
2024-01-11T02:12:24.829Z,19.52
2024-01-11T02:13:24.845Z,19.52
2024-01-11T02:14:24.956Z,19.52
2024-01-11T02:15:24.914Z,19.52
2024-01-11T02:16:24.949Z,19.51
2024-01-11T02:17:25.018Z,19.51
2024-01-11T02:18:25.135Z,19.52
2024-01-11T02:19:25.135Z,19.51
2024-01-11T02:20:25.176Z,19.51
2024-01-11T02:21:25.176Z,19.51
2024-01-11T02:22:25.223Z,19.51
2024-01-11T02:23:25.336Z,19.51
2024-01-11T02:24:25.328Z,19.51
2024-01-11T02:25:25.342Z,19.51
2024-01-11T02:26:25.440Z,19.51
2024-01-11T02:27:25.438Z,19.51
2024-01-11T02:28:25.445Z,19.51
2024-01-11T02:29:25.559Z,19.51
2024-01-11T02:30:25.566Z,19.51
2024-01-11T02:31:25.587Z,19.49
2024-01-11T02:32:25.711Z,19.51
2024-01-11T02:33:26.545Z,19.51
2024-01-11T02:34:25.808Z,19.51
2024-01-11T02:35:25.862Z,19.51
2024-01-11T02:36:25.835Z,19.52
2024-01-11T02:37:25.872Z,19.51
2024-01-11T02:38:26.035Z,19.50
2024-01-11T02:39:25.954Z,19.50
2024-01-11T02:40:25.989Z,19.50
2024-01-11T02:41:26.070Z,19.51
2024-01-11T02:42:26.108Z,19.50
2024-01-11T02:43:26.133Z,19.52
2024-01-11T02:44:26.263Z,19.51
2024-01-11T02:45:26.196Z,19.51
2024-01-11T02:46:26.280Z,19.50
2024-01-11T02:47:26.431Z,19.52
2024-01-11T02:48:26.410Z,19.53
2024-01-11T02:49:26.408Z,19.51
2024-01-11T02:50:26.466Z,19.51
2024-01-11T02:51:26.514Z,19.51
2024-01-11T02:52:26.515Z,19.50
2024-01-11T02:53:26.568Z,19.50
2024-01-11T02:54:26.594Z,19.52
2024-01-11T02:55:26.617Z,19.52
2024-01-11T02:56:26.772Z,19.53
2024-01-11T02:57:26.674Z,19.50
2024-01-11T02:58:26.703Z,19.52
2024-01-11T02:59:26.784Z,19.50
2024-01-11T03:00:26.820Z,19.51
2024-01-11T03:01:26.982Z,19.51
2024-01-11T03:02:26.935Z,19.49
2024-01-11T03:03:27.007Z,19.50
2024-01-11T03:04:26.998Z,19.50
2024-01-11T03:05:27.051Z,19.51
2024-01-11T03:06:27.164Z,19.51
2024-01-11T03:07:27.136Z,19.50
2024-01-11T03:08:27.201Z,19.51
2024-01-11T03:09:27.188Z,19.50
2024-01-11T03:10:27.199Z,19.51
2024-01-11T03:11:27.289Z,19.52
2024-01-11T03:12:27.351Z,19.48
2024-01-11T03:13:27.323Z,19.50
2024-01-11T03:14:27.480Z,19.51
2024-01-11T03:15:27.447Z,19.52
2024-01-11T03:16:27.958Z,19.51
2024-01-11T03:17:27.538Z,19.50
2024-01-11T03:18:27.684Z,19.51
2024-01-11T03:19:27.698Z,19.51
2024-01-11T03:20:27.682Z,19.51
2024-01-11T03:21:27.696Z,19.51
2024-01-11T03:22:27.698Z,19.50
2024-01-11T03:23:27.916Z,19.53
2024-01-11T03:24:27.810Z,19.51
2024-01-11T03:25:27.816Z,19.49
2024-01-11T03:26:27.940Z,19.50
2024-01-11T03:27:27.944Z,19.50
2024-01-11T03:28:27.987Z,19.51
2024-01-11T03:29:28.067Z,19.51
2024-01-11T03:30:28.058Z,19.51
2024-01-11T03:31:28.463Z,19.51
2024-01-11T03:32:28.208Z,19.50
2024-01-11T03:33:28.252Z,19.51
2024-01-11T03:34:28.328Z,19.50
2024-01-11T03:35:28.258Z,19.50
2024-01-11T03:36:28.266Z,19.52
2024-01-11T03:37:28.319Z,19.50
2024-01-11T03:38:28.372Z,19.50
2024-01-11T03:39:28.402Z,19.51
2024-01-11T03:40:28.425Z,19.51
2024-01-11T03:41:28.547Z,19.51
2024-01-11T03:42:28.468Z,19.51
2024-01-11T03:43:28.543Z,19.52
2024-01-11T03:44:28.606Z,19.51
2024-01-11T03:45:28.620Z,19.50
2024-01-11T03:46:28.680Z,19.52
2024-01-11T03:47:28.844Z,19.51
2024-01-11T03:48:28.843Z,19.53
2024-01-11T03:49:28.862Z,19.52
2024-01-11T03:50:28.862Z,19.51
2024-01-11T03:51:28.884Z,19.51
2024-01-11T03:52:28.939Z,19.51
2024-01-11T03:53:28.939Z,19.52
2024-01-11T03:54:28.993Z,19.51
2024-01-11T03:55:29.014Z,19.53
2024-01-11T03:56:29.564Z,19.50
2024-01-11T03:57:29.054Z,19.51
2024-01-11T03:58:29.130Z,19.52
2024-01-11T03:59:29.178Z,19.50
2024-01-11T04:00:29.213Z,19.50
2024-01-11T04:01:29.201Z,19.52
2024-01-11T04:02:29.274Z,19.51
2024-01-11T04:03:29.322Z,19.51
2024-01-11T04:04:29.306Z,19.51
2024-01-11T04:05:29.463Z,19.50
2024-01-11T04:06:29.486Z,19.50
2024-01-11T04:07:29.435Z,19.51
2024-01-11T04:08:29.473Z,19.51
2024-01-11T04:09:29.505Z,19.50
2024-01-11T04:10:29.515Z,19.50
2024-01-11T04:11:30.024Z,19.51
2024-01-11T04:12:29.645Z,19.52
2024-01-11T04:13:29.651Z,19.51
2024-01-11T04:14:29.745Z,19.50
2024-01-11T04:15:29.704Z,19.51
2024-01-11T04:16:30.043Z,19.50
2024-01-11T04:17:29.923Z,19.50
2024-01-11T04:18:29.964Z,19.50
2024-01-11T04:19:30.032Z,19.50
2024-01-11T04:20:29.934Z,19.51
2024-01-11T04:21:30.099Z,19.52
2024-01-11T04:22:30.022Z,19.49
2024-01-11T04:23:30.126Z,19.49
2024-01-11T04:24:30.101Z,19.51
2024-01-11T04:25:30.152Z,19.50
2024-01-11T04:26:30.228Z,19.50
2024-01-11T04:27:30.257Z,19.50
2024-01-11T04:28:30.254Z,19.51
2024-01-11T04:29:30.327Z,19.50
2024-01-11T04:30:30.388Z,19.50
2024-01-11T04:31:30.388Z,19.52
2024-01-11T04:32:37.780Z,19.53
2024-01-11T04:33:37.768Z,19.52
2024-01-11T04:34:37.747Z,19.49
2024-01-11T04:35:37.771Z,19.53
2024-01-11T04:36:37.724Z,19.50
2024-01-11T04:37:37.785Z,19.51
2024-01-11T04:38:37.749Z,19.50
2024-01-11T04:39:37.687Z,19.50
2024-01-11T04:40:37.644Z,19.50
2024-01-11T04:41:37.803Z,19.52
2024-01-11T04:42:37.670Z,19.51
2024-01-11T04:43:37.732Z,19.51
2024-01-11T04:44:37.702Z,19.51
2024-01-11T04:45:37.638Z,19.51
2024-01-11T04:46:37.691Z,19.50
2024-01-11T04:47:37.790Z,19.51
2024-01-11T04:48:37.787Z,19.50
2024-01-11T04:49:37.694Z,19.49
2024-01-11T04:50:37.721Z,19.51
2024-01-11T04:51:37.716Z,19.51
2024-01-11T04:52:37.674Z,19.51
2024-01-11T04:53:37.738Z,19.51
2024-01-11T04:54:37.651Z,19.51
2024-01-11T04:55:37.678Z,19.51
2024-01-11T04:56:37.833Z,19.50
2024-01-11T04:57:37.640Z,19.50
2024-01-11T04:58:37.690Z,19.51
2024-01-11T04:59:37.777Z,19.51
2024-01-11T05:00:37.769Z,19.51
2024-01-11T05:01:37.810Z,19.52
2024-01-11T05:02:37.823Z,19.50
2024-01-11T05:03:37.740Z,19.50
2024-01-11T05:04:37.788Z,19.52
2024-01-11T05:05:37.839Z,19.50
2024-01-11T05:06:37.836Z,19.51
2024-01-11T05:07:37.692Z,19.50
2024-01-11T05:08:37.850Z,19.50
2024-01-11T05:09:37.825Z,19.49
2024-01-11T05:10:37.882Z,19.50
2024-01-11T05:11:38.028Z,19.51
2024-01-11T05:12:37.982Z,19.50
2024-01-11T05:13:38.089Z,19.52
2024-01-11T05:14:38.218Z,19.50
2024-01-11T05:15:38.169Z,19.51
2024-01-11T05:16:38.271Z,19.50
2024-01-11T05:17:38.424Z,19.49
2024-01-11T05:18:38.429Z,19.51
2024-01-11T05:19:38.527Z,19.50
2024-01-11T05:20:38.536Z,19.51
2024-01-11T05:21:38.569Z,19.50
2024-01-11T05:22:38.632Z,19.51
2024-01-11T05:23:38.752Z,19.52
2024-01-11T05:24:38.742Z,19.52
2024-01-11T05:25:38.864Z,19.49
2024-01-11T05:26:38.958Z,19.52
2024-01-11T05:27:39.097Z,19.50
2024-01-11T05:28:39.094Z,19.51
2024-01-11T05:29:39.887Z,19.50
2024-01-11T05:30:39.304Z,19.52
2024-01-11T05:31:39.464Z,19.53
2024-01-11T05:32:39.366Z,19.53
2024-01-11T05:33:39.477Z,19.53
2024-01-11T05:34:39.554Z,19.53
2024-01-11T05:35:39.394Z,19.53
2024-01-11T05:36:39.382Z,19.53
2024-01-11T05:37:39.453Z,19.55
2024-01-11T05:38:39.504Z,19.55
2024-01-11T05:39:39.498Z,19.57
2024-01-11T05:40:39.584Z,19.57
2024-01-11T05:41:39.624Z,19.57
2024-01-11T05:42:39.638Z,19.61
2024-01-11T05:43:39.630Z,19.59
2024-01-11T05:44:39.787Z,19.62
2024-01-11T05:45:47.442Z,19.64
2024-01-11T05:46:40.750Z,19.65
2024-01-11T05:47:39.874Z,19.67
2024-01-11T05:48:39.899Z,19.70
2024-01-11T05:49:39.753Z,19.70
2024-01-11T05:50:39.837Z,19.75
2024-01-11T05:51:39.802Z,19.86
2024-01-11T05:52:39.719Z,19.93
2024-01-11T05:53:39.929Z,19.96
2024-01-11T05:54:39.725Z,20.00
2024-01-11T05:55:39.734Z,20.04
2024-01-11T05:56:39.833Z,19.99
2024-01-11T05:57:39.721Z,20.00
2024-01-11T05:58:39.812Z,19.95
2024-01-11T05:59:39.799Z,19.91
2024-01-11T06:00:39.821Z,19.88
2024-01-11T06:01:40.849Z,19.84
2024-01-11T06:02:39.863Z,19.81
2024-01-11T06:03:40.039Z,19.76
2024-01-11T06:04:39.885Z,19.70
2024-01-11T06:05:40.045Z,19.66
2024-01-11T06:06:40.061Z,19.63
2024-01-11T06:07:40.004Z,19.58
2024-01-11T06:08:40.122Z,19.50
2024-01-11T06:09:40.137Z,19.53
2024-01-11T06:10:40.209Z,19.52
2024-01-11T06:11:40.335Z,19.49
2024-01-11T06:12:40.321Z,19.49
2024-01-11T06:13:40.323Z,19.46
2024-01-11T06:14:40.390Z,19.43
2024-01-11T06:15:40.447Z,19.42
2024-01-11T06:16:40.851Z,19.41
2024-01-11T06:17:40.699Z,19.40
2024-01-11T06:18:40.677Z,19.41
2024-01-11T06:19:40.629Z,19.39
2024-01-11T06:20:40.836Z,19.32
2024-01-11T06:21:40.738Z,19.34
2024-01-11T06:22:42.893Z,19.31
2024-01-11T06:23:40.885Z,19.33
2024-01-11T06:24:40.826Z,19.30
2024-01-11T06:25:40.818Z,19.24
2024-01-11T06:26:41.889Z,19.24
2024-01-11T06:27:40.824Z,19.25
2024-01-11T06:28:40.840Z,19.28
2024-01-11T06:29:40.858Z,19.27
2024-01-11T06:30:40.889Z,19.23
2024-01-11T06:31:40.814Z,19.23
2024-01-11T06:32:40.970Z,19.21
2024-01-11T06:33:40.862Z,19.22
2024-01-11T06:34:40.825Z,19.21
2024-01-11T06:35:40.922Z,19.17
2024-01-11T06:36:41.340Z,19.16
2024-01-11T06:37:40.841Z,19.14
2024-01-11T06:38:40.944Z,19.11
2024-01-11T06:39:40.812Z,19.15
2024-01-11T06:40:40.815Z,19.12
2024-01-11T06:41:41.410Z,19.12
2024-01-11T06:42:40.822Z,19.08
2024-01-11T06:43:40.840Z,19.08
2024-01-11T06:44:40.880Z,19.05
2024-01-11T06:45:40.850Z,19.06
2024-01-11T06:46:40.850Z,19.03
2024-01-11T06:47:40.894Z,18.93
2024-01-11T06:48:53.521Z,18.99
2024-01-11T06:49:53.399Z,19.07
2024-01-11T06:50:53.438Z,19.14
2024-01-11T06:51:53.541Z,19.16
2024-01-11T06:52:53.493Z,19.17
2024-01-11T06:53:53.531Z,19.19
2024-01-11T06:54:53.566Z,19.26
2024-01-11T06:55:53.608Z,19.43
2024-01-11T06:56:53.766Z,19.81
2024-01-11T06:57:53.779Z,19.60
2024-01-11T06:58:53.789Z,19.48
2024-01-11T06:59:53.974Z,19.47
2024-01-11T07:00:53.919Z,19.95
2024-01-11T07:01:53.957Z,19.64
2024-01-11T07:02:53.998Z,19.65
2024-01-11T07:03:54.151Z,19.73
2024-01-11T07:04:54.124Z,19.66
2024-01-11T07:05:54.191Z,19.66
2024-01-11T07:06:54.658Z,19.70
2024-01-11T07:07:54.228Z,19.72
2024-01-11T07:08:54.354Z,19.73
2024-01-11T07:09:54.249Z,19.77
2024-01-11T07:10:54.344Z,19.77
2024-01-11T07:11:54.386Z,19.97
2024-01-11T07:12:54.393Z,19.97
2024-01-11T07:13:54.394Z,19.92
2024-01-11T07:14:54.468Z,20.12
2024-01-11T07:15:54.475Z,20.03
2024-01-11T07:16:54.539Z,19.96
2024-01-11T07:17:54.691Z,19.97
2024-01-11T07:18:54.595Z,20.01
2024-01-11T07:19:54.560Z,20.01
2024-01-11T07:20:54.625Z,20.14
2024-01-11T07:21:54.576Z,20.20
2024-01-11T07:22:54.586Z,20.12
2024-01-11T07:23:54.683Z,20.16
2024-01-11T07:24:54.610Z,20.25
2024-01-11T07:25:54.613Z,20.45
2024-01-11T07:26:54.717Z,20.31
2024-01-11T07:27:54.602Z,20.58
2024-01-11T07:28:54.630Z,20.32
2024-01-11T07:29:54.747Z,20.31
2024-01-11T07:30:54.871Z,20.44
2024-01-11T07:31:55.107Z,20.37
2024-01-11T07:32:54.941Z,20.38
2024-01-11T07:33:54.934Z,20.35
2024-01-11T07:34:54.915Z,20.52
2024-01-11T07:35:55.032Z,20.67
2024-01-11T07:36:55.099Z,20.67
2024-01-11T07:37:55.109Z,20.78
2024-01-11T07:38:55.201Z,20.81
2024-01-11T07:39:55.216Z,20.79
2024-01-11T07:40:55.313Z,21.01
2024-01-11T07:41:55.587Z,20.83
2024-01-11T07:42:55.487Z,20.92
2024-01-11T07:43:55.641Z,20.95
2024-01-11T07:44:55.605Z,21.45
2024-01-11T07:45:55.718Z,21.52
2024-01-11T07:46:58.309Z,21.33
2024-01-11T07:47:55.824Z,21.36
2024-01-11T07:48:55.830Z,21.44
2024-01-11T07:49:55.746Z,21.33
2024-01-11T07:50:55.808Z,21.67
2024-01-11T07:51:55.773Z,21.47
2024-01-11T07:52:55.768Z,21.54
2024-01-11T07:53:55.782Z,21.64
2024-01-11T07:54:55.799Z,21.26
2024-01-11T07:55:55.794Z,21.61
2024-01-11T07:56:56.558Z,21.28
2024-01-11T07:57:55.752Z,21.66
2024-01-11T07:58:55.844Z,21.46
2024-01-11T07:59:55.822Z,21.62
2024-01-11T08:00:55.821Z,21.68
2024-01-11T08:01:56.153Z,21.61
2024-01-11T08:02:55.948Z,21.70
2024-01-11T08:03:55.900Z,21.86
2024-01-11T08:04:56.961Z,21.70
2024-01-11T08:05:55.951Z,22.02
2024-01-11T08:06:56.015Z,22.05
2024-01-11T08:07:56.067Z,22.03
2024-01-11T08:08:56.151Z,22.11
2024-01-11T08:09:56.084Z,22.14
2024-01-11T08:10:56.158Z,22.13
2024-01-11T08:11:57.652Z,22.16
2024-01-11T08:12:56.312Z,22.07
2024-01-11T08:13:56.344Z,22.23
2024-01-11T08:14:56.396Z,22.25
2024-01-11T08:15:56.444Z,22.21
2024-01-11T08:16:56.483Z,22.24
2024-01-11T08:17:56.594Z,21.99
2024-01-11T08:18:56.658Z,22.30
2024-01-11T08:19:56.663Z,22.36
2024-01-11T08:20:56.698Z,22.38
2024-01-11T08:21:56.777Z,22.41
2024-01-11T08:22:56.929Z,22.47
2024-01-11T08:23:59.262Z,22.57
2024-01-11T08:24:56.875Z,22.52
2024-01-11T08:25:56.860Z,22.58
2024-01-11T08:26:56.890Z,22.55
2024-01-11T08:27:56.939Z,22.41
2024-01-11T08:28:56.895Z,22.51
2024-01-11T08:29:56.894Z,22.61
2024-01-11T08:30:56.930Z,22.63
2024-01-11T08:31:56.886Z,22.55
2024-01-11T08:32:57.056Z,22.55
2024-01-11T08:33:57.038Z,22.59
2024-01-11T08:34:56.937Z,22.60
2024-01-11T08:35:56.898Z,22.66
2024-01-11T08:36:56.901Z,22.63
2024-01-11T08:37:56.889Z,22.61
2024-01-11T08:38:56.905Z,22.58
2024-01-11T08:39:56.886Z,22.52
2024-01-11T08:40:56.868Z,22.70
2024-01-11T08:41:57.077Z,22.69
2024-01-11T08:42:56.883Z,22.85
2024-01-11T08:43:56.906Z,22.94
2024-01-11T08:44:58.240Z,22.89
2024-01-11T08:45:56.872Z,22.84
2024-01-11T08:46:56.922Z,22.91
2024-01-11T08:47:57.100Z,22.93
2024-01-11T08:48:57.085Z,22.74
2024-01-11T08:49:57.008Z,22.75
2024-01-11T08:50:57.220Z,22.65
2024-01-11T08:51:57.105Z,22.81
2024-01-11T08:52:57.417Z,23.07
2024-01-11T08:53:58.224Z,22.97
2024-01-11T08:54:57.133Z,22.76
2024-01-11T08:55:57.137Z,22.73
2024-01-11T08:56:57.139Z,22.64
2024-01-11T08:57:57.180Z,22.62
2024-01-11T08:58:57.205Z,22.89
2024-01-11T08:59:57.224Z,22.89
2024-01-11T09:00:57.229Z,22.76
2024-01-11T09:02:06.322Z,22.94
2024-01-11T09:02:59.063Z,22.89
2024-01-11T09:03:57.258Z,22.92
2024-01-11T09:04:57.252Z,22.94
2024-01-11T09:05:57.338Z,22.83
2024-01-11T09:06:57.648Z,22.96
2024-01-11T09:07:57.250Z,22.95
2024-01-11T09:08:57.229Z,23.14
2024-01-11T09:09:57.843Z,23.02
2024-01-11T09:10:57.231Z,23.05
2024-01-11T09:11:57.606Z,23.18
2024-01-11T09:12:57.262Z,23.14
2024-01-11T09:13:57.261Z,23.11
2024-01-11T09:14:57.213Z,23.11
2024-01-11T09:15:58.099Z,23.27
2024-01-11T09:16:57.419Z,23.08
2024-01-11T09:17:57.410Z,23.11
2024-01-11T09:18:57.498Z,23.18
2024-01-11T09:19:57.328Z,22.99
2024-01-11T09:20:57.415Z,23.04
2024-01-11T09:21:58.141Z,23.03
2024-01-11T09:22:57.382Z,23.02
2024-01-11T09:23:57.386Z,23.01
2024-01-11T09:24:57.377Z,23.02
2024-01-11T09:25:57.459Z,23.13
2024-01-11T09:26:57.602Z,23.24
2024-01-11T09:27:57.512Z,23.11
2024-01-11T09:28:57.571Z,23.15
2024-01-11T09:29:57.790Z,23.09
2024-01-11T09:30:57.782Z,23.15
2024-01-11T09:31:57.794Z,23.02
2024-01-11T09:32:57.967Z,22.97
2024-01-11T09:33:57.985Z,23.05
2024-01-11T09:34:57.960Z,22.92
2024-01-11T09:35:58.093Z,22.89
2024-01-11T09:36:59.099Z,22.90
2024-01-11T09:37:58.178Z,22.91
2024-01-11T09:38:58.394Z,22.93
2024-01-11T09:39:58.329Z,22.89
2024-01-11T09:40:58.385Z,23.31
2024-01-11T09:41:59.115Z,22.87
2024-01-11T09:42:58.531Z,22.98
2024-01-11T09:43:58.606Z,23.05
2024-01-11T09:44:58.657Z,23.27
2024-01-11T09:45:58.773Z,22.86
2024-01-11T09:46:59.124Z,22.85
2024-01-11T09:47:58.914Z,23.03
2024-01-11T09:48:58.980Z,22.79
2024-01-11T09:49:59.087Z,22.68
2024-01-11T09:50:59.053Z,22.74
2024-01-11T09:51:59.634Z,22.94
2024-01-11T09:52:59.178Z,22.96
2024-01-11T09:53:59.218Z,22.88
2024-01-11T09:54:59.308Z,22.99
2024-01-11T09:55:59.317Z,22.92
2024-01-11T09:56:59.618Z,23.34
2024-01-11T09:57:59.354Z,23.04
2024-01-11T09:58:59.517Z,23.02
2024-01-11T09:59:59.442Z,22.94
2024-01-11T10:00:59.476Z,23.11
2024-01-11T10:01:59.609Z,23.07
2024-01-11T10:02:59.633Z,23.19
2024-01-11T10:03:59.721Z,23.12
2024-01-11T10:04:59.782Z,23.41
2024-01-11T10:05:59.759Z,23.37
2024-01-11T10:07:00.155Z,23.48
2024-01-11T10:07:59.890Z,23.41
2024-01-11T10:08:59.916Z,23.44
2024-01-11T10:09:59.996Z,23.19
2024-01-11T10:11:00.141Z,23.38
2024-01-11T10:12:00.605Z,23.73
2024-01-11T10:13:00.198Z,23.52
2024-01-11T10:14:00.393Z,23.48
2024-01-11T10:15:00.309Z,23.39
2024-01-11T10:16:00.373Z,23.68
2024-01-11T10:17:00.663Z,23.70
2024-01-11T10:18:00.783Z,24.02
2024-01-11T10:19:00.854Z,24.13
2024-01-11T10:20:00.840Z,23.87
2024-01-11T10:21:00.879Z,23.51
2024-01-11T10:22:00.821Z,23.91
2024-01-11T10:23:00.892Z,23.97
2024-01-11T10:24:00.930Z,23.67
2024-01-11T10:25:00.982Z,23.91
2024-01-11T10:26:01.086Z,23.79
2024-01-11T10:27:01.143Z,24.12
2024-01-11T10:28:01.187Z,23.94
2024-01-11T10:29:01.374Z,24.13
2024-01-11T10:30:01.300Z,23.73
2024-01-11T10:31:01.373Z,23.91
2024-01-11T10:32:01.704Z,23.96
2024-01-11T10:33:01.785Z,23.88
2024-01-11T10:34:01.644Z,23.93
2024-01-11T10:35:02.783Z,23.85
2024-01-11T10:36:01.630Z,23.94
2024-01-11T10:37:01.681Z,23.95
2024-01-11T10:38:01.761Z,23.99
2024-01-11T10:39:01.819Z,23.89
2024-01-11T10:40:01.859Z,24.06
2024-01-11T10:41:01.890Z,23.77
2024-01-11T10:42:04.170Z,23.92
2024-01-11T10:43:02.001Z,24.25
2024-01-11T10:44:02.054Z,24.35
2024-01-11T10:45:02.062Z,24.65
2024-01-11T10:46:02.133Z,24.22
2024-01-11T10:47:02.751Z,23.88
2024-01-11T10:48:04.136Z,23.63
2024-01-11T10:49:02.596Z,23.54
2024-01-11T10:50:02.565Z,23.46
2024-01-11T10:51:02.624Z,23.38
2024-01-11T10:52:03.213Z,23.36
2024-01-11T10:53:02.775Z,23.29
2024-01-11T10:54:03.093Z,23.21
2024-01-11T10:55:02.897Z,23.18
2024-01-11T10:56:02.968Z,23.14
2024-01-11T10:57:03.168Z,23.09
2024-01-11T10:58:03.143Z,23.07
2024-01-11T10:59:03.216Z,23.06
2024-01-11T11:00:03.266Z,22.99
2024-01-11T11:01:03.358Z,22.94
2024-01-11T11:02:04.227Z,22.86
2024-01-11T11:03:03.546Z,22.83
2024-01-11T11:04:03.428Z,22.73
2024-01-11T11:05:03.532Z,22.66
2024-01-11T11:06:03.515Z,22.62
2024-01-11T11:07:03.506Z,22.55
2024-01-11T11:08:03.465Z,22.53
2024-01-11T11:09:03.502Z,22.45
2024-01-11T11:10:03.471Z,22.42
2024-01-11T11:11:03.616Z,22.36
2024-01-11T11:12:03.641Z,22.30
2024-01-11T11:13:03.569Z,22.24
2024-01-11T11:14:03.591Z,22.15
2024-01-11T11:15:03.614Z,22.10
2024-01-11T11:16:03.594Z,22.06
2024-01-11T11:17:03.671Z,21.99
2024-01-11T11:18:03.784Z,21.92
2024-01-11T11:19:11.027Z,21.88
2024-01-11T11:20:11.035Z,21.76
2024-01-11T11:21:11.004Z,21.65
2024-01-11T11:22:11.112Z,21.61
2024-01-11T11:23:11.136Z,21.54
2024-01-11T11:24:11.026Z,21.34
2024-01-11T11:25:11.008Z,21.42
2024-01-11T11:26:11.047Z,21.29
2024-01-11T11:27:11.121Z,21.30
2024-01-11T11:28:11.011Z,21.28
2024-01-11T11:29:11.054Z,20.70
2024-01-11T11:30:11.082Z,20.86
2024-01-11T11:31:10.979Z,20.83
2024-01-11T11:32:11.185Z,20.97
2024-01-11T11:33:11.199Z,20.95
2024-01-11T11:34:11.184Z,20.83
2024-01-11T11:35:11.035Z,20.64
2024-01-11T11:36:11.037Z,20.78
2024-01-11T11:37:11.026Z,20.84
2024-01-11T11:38:11.029Z,20.70
2024-01-11T11:39:11.046Z,20.57
2024-01-11T11:40:11.054Z,20.54
2024-01-11T11:41:11.081Z,20.31
2024-01-11T11:42:11.065Z,20.25
2024-01-11T11:43:11.058Z,20.19
2024-01-11T11:44:11.038Z,20.34
2024-01-11T11:45:11.048Z,20.27
2024-01-11T11:46:11.154Z,19.77
2024-01-11T11:47:11.062Z,20.26
2024-01-11T11:48:11.175Z,19.95
2024-01-11T11:49:11.247Z,19.85
2024-01-11T11:50:11.404Z,19.76
2024-01-11T11:51:11.278Z,19.89
2024-01-11T11:52:11.291Z,19.93
2024-01-11T11:53:11.363Z,19.59
2024-01-11T11:54:11.399Z,19.53
2024-01-11T11:55:11.459Z,19.61
2024-01-11T11:56:11.584Z,19.47
2024-01-11T11:57:11.596Z,19.35
2024-01-11T11:58:11.662Z,19.28
2024-01-11T11:59:11.767Z,19.50
2024-01-11T12:00:11.781Z,19.50
2024-01-11T12:01:11.880Z,19.44
2024-01-11T12:02:11.929Z,19.34
2024-01-11T12:03:11.996Z,19.42
2024-01-11T12:04:12.097Z,19.38
2024-01-11T12:05:12.372Z,19.13
2024-01-11T12:06:12.353Z,19.07
2024-01-11T12:07:12.338Z,19.37
2024-01-11T12:08:12.338Z,19.02
2024-01-11T12:09:12.379Z,19.27
2024-01-11T12:10:12.436Z,19.02
2024-01-11T12:11:12.556Z,18.96
2024-01-11T12:12:15.929Z,19.08
2024-01-11T12:13:12.561Z,19.08
2024-01-11T12:14:12.608Z,19.27
2024-01-11T12:15:12.608Z,19.21
2024-01-11T12:16:12.578Z,18.90
2024-01-11T12:17:12.565Z,18.99
2024-01-11T12:18:12.713Z,19.20
2024-01-11T12:19:12.589Z,18.84
2024-01-11T12:20:12.626Z,19.00
2024-01-11T12:21:12.565Z,19.00
2024-01-11T12:22:12.596Z,18.86
2024-01-11T12:23:12.581Z,18.85
2024-01-11T12:24:12.569Z,18.88
2024-01-11T12:25:12.565Z,19.02
2024-01-11T12:26:12.733Z,19.05
2024-01-11T12:27:12.643Z,19.06
2024-01-11T12:28:12.586Z,18.92
2024-01-11T12:29:12.661Z,18.79
2024-01-11T12:30:12.693Z,18.88
2024-01-11T12:31:12.649Z,18.91
2024-01-11T12:32:12.673Z,18.77
2024-01-11T12:33:12.836Z,19.16
2024-01-11T12:34:12.661Z,19.14
2024-01-11T12:35:12.603Z,18.91
2024-01-11T12:36:12.569Z,19.10
2024-01-11T12:37:12.705Z,18.96
2024-01-11T12:38:12.645Z,18.81
2024-01-11T12:39:12.595Z,18.83
2024-01-11T12:40:12.589Z,18.96
2024-01-11T12:41:12.644Z,18.98
2024-01-11T12:42:12.592Z,18.84
2024-01-11T12:43:12.631Z,19.12
2024-01-11T12:44:12.618Z,18.99
2024-01-11T12:45:12.616Z,19.13
2024-01-11T12:46:12.605Z,18.86
2024-01-11T12:47:12.634Z,19.27
2024-01-11T12:48:12.771Z,19.16
2024-01-11T12:49:12.761Z,19.31
2024-01-11T12:50:12.641Z,19.23
2024-01-11T12:51:17.635Z,19.11
2024-01-11T12:52:13.663Z,19.28
2024-01-11T12:53:12.611Z,19.32